createdAt,value
2023-02-19T00:01:47.987Z,3.16
2023-02-19T00:04:34.777Z,3.13
2023-02-19T00:07:21.545Z,3.17
2023-02-19T00:10:08.530Z,3.02
2023-02-19T00:12:55.710Z,3.13
2023-02-19T00:15:42.134Z,3.14
2023-02-19T00:18:28.353Z,3.04
2023-02-19T00:21:16.068Z,3.13
2023-02-19T00:24:04.781Z,2.98
2023-02-19T00:26:53.881Z,3.17
2023-02-19T00:29:40.060Z,3.17
2023-02-19T00:32:29.660Z,2.86
2023-02-19T00:35:16.375Z,3.16
2023-02-19T00:38:04.509Z,3.16
2023-02-19T00:40:50.957Z,3.17
2023-02-19T00:43:37.511Z,2.96
2023-02-19T00:46:25.183Z,3.16
2023-02-19T00:49:16.905Z,3.03
2023-02-19T00:52:03.413Z,3.17
2023-02-19T00:54:52.141Z,3.18
2023-02-19T00:57:38.231Z,3.19
2023-02-19T01:00:24.786Z,3.17
2023-02-19T01:03:11.139Z,3.08
2023-02-19T01:05:58.016Z,3.16
2023-02-19T01:08:44.554Z,3.19
2023-02-19T01:11:31.233Z,3.23
2023-02-19T01:14:17.427Z,3.24
2023-02-19T01:17:04.473Z,3.18
2023-02-19T01:19:50.986Z,3.20
2023-02-19T01:22:38.154Z,3.27
2023-02-19T01:25:25.618Z,3.06
2023-02-19T01:28:12.462Z,3.30
2023-02-19T01:31:06.384Z,3.28
2023-02-19T01:34:04.706Z,3.28
2023-02-19T01:36:51.271Z,3.28
2023-02-19T01:39:38.968Z,2.89
2023-02-19T01:42:25.294Z,3.14
2023-02-19T01:45:27.396Z,3.20
2023-02-19T01:48:26.848Z,2.83
2023-02-19T01:51:16.293Z,3.17
2023-02-19T01:54:12.842Z,3.21
2023-02-19T01:57:02.834Z,3.19
2023-02-19T01:59:54.995Z,3.18
2023-02-19T02:02:43.348Z,2.97
2023-02-19T02:05:48.066Z,3.19
2023-02-19T02:08:53.529Z,3.07
2023-02-19T02:11:43.981Z,2.99
2023-02-19T02:14:31.973Z,3.18
2023-02-19T02:17:27.008Z,3.09
2023-02-19T02:20:29.165Z,3.13
2023-02-19T02:23:55.130Z,3.12
2023-02-19T02:27:33.287Z,3.13
2023-02-19T02:30:33.443Z,3.02
2023-02-19T02:33:26.792Z,3.15
2023-02-19T02:36:19.245Z,3.10
2023-02-19T02:39:08.548Z,2.91
2023-02-19T02:42:17.648Z,3.04
2023-02-19T02:45:37.037Z,3.12
2023-02-19T02:48:45.387Z,3.01
2023-02-19T02:51:39.453Z,3.01
2023-02-19T02:54:49.217Z,2.66
2023-02-19T02:57:37.256Z,2.97
2023-02-19T03:00:24.936Z,2.86
2023-02-19T03:03:11.770Z,2.87
2023-02-19T03:06:02.741Z,2.90
2023-02-19T03:09:17.688Z,3.03
2023-02-19T03:12:24.153Z,2.89
2023-02-19T03:15:31.936Z,2.86
2023-02-19T03:18:37.948Z,2.74
2023-02-19T03:21:26.199Z,2.86
2023-02-19T03:24:32.135Z,2.87
2023-02-19T03:27:20.214Z,2.77
2023-02-19T03:30:21.749Z,2.73
2023-02-19T03:33:16.477Z,2.84
2023-02-19T03:36:05.953Z,2.76
2023-02-19T03:39:20.896Z,2.85
2023-02-19T03:42:35.401Z,2.76
2023-02-19T03:45:32.458Z,2.61
2023-02-19T03:48:24.375Z,2.83
2023-02-19T03:51:28.120Z,2.81
2023-02-19T03:54:28.707Z,2.79
2023-02-19T03:57:52.109Z,2.77
2023-02-19T04:00:42.220Z,2.71
2023-02-19T04:03:39.121Z,2.80
2023-02-19T04:06:47.100Z,2.77
2023-02-19T04:09:38.274Z,2.81
2023-02-19T04:12:29.564Z,2.82
2023-02-19T04:15:27.983Z,2.82
2023-02-19T04:18:44.212Z,2.86
2023-02-19T04:21:32.687Z,2.55
2023-02-19T04:24:39.503Z,2.87
2023-02-19T04:27:26.753Z,2.71
2023-02-19T04:30:14.064Z,2.84
2023-02-19T04:33:00.761Z,2.81
2023-02-19T04:35:47.292Z,2.91
2023-02-19T04:38:33.890Z,2.84
2023-02-19T04:41:20.138Z,2.68
2023-02-19T04:44:09.771Z,2.91
2023-02-19T04:46:55.922Z,2.99
2023-02-19T04:49:42.641Z,3.02
2023-02-19T04:52:29.118Z,2.97
2023-02-19T04:55:15.759Z,2.92
2023-02-19T04:58:02.083Z,2.99
2023-02-19T05:00:52.362Z,3.04
2023-02-19T05:03:38.662Z,2.99
2023-02-19T05:06:25.238Z,2.97
2023-02-19T05:09:11.846Z,2.95
2023-02-19T05:11:58.249Z,3.00
2023-02-19T05:14:47.115Z,2.90
2023-02-19T05:17:37.323Z,2.91
2023-02-19T05:20:23.342Z,2.90
2023-02-19T05:23:09.886Z,2.80
2023-02-19T05:25:55.973Z,2.91
2023-02-19T05:28:43.169Z,2.87
2023-02-19T05:31:29.509Z,2.59
2023-02-19T05:34:16.320Z,2.98
2023-02-19T05:37:02.427Z,2.98
2023-02-19T05:39:52.231Z,2.83
2023-02-19T05:42:38.573Z,2.84
2023-02-19T05:45:25.231Z,2.92
2023-02-19T05:48:12.927Z,2.90
2023-02-19T05:51:04.553Z,2.85
2023-02-19T05:53:51.419Z,2.84
2023-02-19T05:56:42.445Z,2.88
2023-02-19T05:59:29.339Z,2.55
2023-02-19T06:02:16.237Z,2.65
2023-02-19T06:05:02.754Z,2.73
2023-02-19T06:07:50.628Z,2.83
2023-02-19T06:10:40.269Z,2.84
2023-02-19T06:13:27.349Z,2.70
2023-02-19T06:16:13.739Z,2.69
2023-02-19T06:19:04.302Z,2.68
2023-02-19T06:21:51.111Z,2.85
2023-02-19T06:24:37.876Z,2.70
2023-02-19T06:27:24.307Z,2.88
2023-02-19T06:30:11.925Z,2.87
2023-02-19T06:32:58.495Z,2.81
2023-02-19T06:35:44.856Z,2.84
2023-02-19T06:38:31.769Z,2.71
2023-02-19T06:41:18.249Z,2.76
2023-02-19T06:44:05.088Z,2.74
2023-02-19T06:46:55.219Z,2.76
2023-02-19T06:49:41.645Z,2.67
2023-02-19T06:52:28.193Z,2.66
2023-02-19T06:55:17.068Z,2.41
2023-02-19T06:58:04.652Z,2.69
2023-02-19T07:00:53.961Z,2.49
2023-02-19T07:03:40.651Z,2.53
2023-02-19T07:06:27.370Z,2.47
2023-02-19T07:09:14.008Z,2.68
2023-02-19T07:12:00.376Z,2.87
2023-02-19T07:14:49.685Z,2.87
2023-02-19T07:17:36.427Z,2.77
2023-02-19T07:20:23.429Z,2.90
2023-02-19T07:23:10.008Z,2.99
2023-02-19T07:25:56.892Z,2.98
2023-02-19T07:28:44.667Z,2.91
2023-02-19T07:31:31.409Z,2.97
2023-02-19T07:34:17.738Z,3.10
2023-02-19T07:37:09.265Z,3.10
2023-02-19T07:39:55.620Z,3.13
2023-02-19T07:42:42.478Z,2.91
2023-02-19T07:45:28.572Z,3.14
2023-02-19T07:48:15.837Z,3.19
2023-02-19T07:51:03.974Z,3.27
2023-02-19T07:53:51.030Z,3.32
2023-02-19T07:56:37.494Z,3.37
2023-02-19T07:59:24.342Z,3.12
2023-02-19T08:02:36.709Z,3.41
2023-02-19T08:05:23.671Z,3.50
2023-02-19T08:08:12.537Z,3.31
2023-02-19T08:11:22.416Z,3.41
2023-02-19T08:14:22.026Z,3.84
2023-02-19T08:17:12.224Z,3.92
2023-02-19T08:19:58.743Z,3.99
2023-02-19T08:22:45.511Z,4.09
2023-02-19T08:25:34.549Z,3.90
2023-02-19T08:28:21.160Z,4.17
2023-02-19T08:31:08.378Z,4.25
2023-02-19T08:33:55.222Z,4.19
2023-02-19T08:36:42.700Z,4.50
2023-02-19T08:39:29.167Z,4.58
2023-02-19T08:42:15.547Z,4.56
2023-02-19T08:45:02.496Z,4.40
2023-02-19T08:47:48.883Z,4.42
2023-02-19T08:50:36.316Z,4.50
2023-02-19T08:53:23.129Z,4.41
2023-02-19T08:56:12.412Z,4.52
2023-02-19T08:59:01.349Z,4.45
2023-02-19T09:01:48.139Z,4.53
2023-02-19T09:04:34.310Z,4.60
2023-02-19T09:07:21.175Z,4.51
2023-02-19T09:10:07.968Z,4.43
2023-02-19T09:12:54.473Z,4.31
2023-02-19T09:15:40.752Z,4.34
2023-02-19T09:18:27.438Z,4.39
2023-02-19T09:21:14.315Z,4.36
2023-02-19T09:24:01.133Z,4.41
2023-02-19T09:26:52.066Z,4.48
2023-02-19T09:29:39.044Z,4.61
2023-02-19T09:32:25.751Z,4.67
2023-02-19T09:35:12.792Z,4.73
2023-02-19T09:38:01.164Z,4.55
2023-02-19T09:40:50.876Z,4.51
2023-02-19T09:43:38.392Z,4.84
2023-02-19T09:46:31.713Z,4.69
2023-02-19T09:49:39.167Z,4.81
2023-02-19T09:52:33.286Z,4.76
2023-02-19T09:55:25.822Z,4.80
2023-02-19T09:58:30.151Z,4.62
2023-02-19T10:01:16.481Z,4.80
2023-02-19T10:04:04.302Z,4.85
2023-02-19T10:06:59.016Z,5.00
2023-02-19T10:09:54.423Z,5.04
2023-02-19T10:12:51.952Z,5.00
2023-02-19T10:15:44.519Z,4.84
2023-02-19T10:18:46.684Z,5.01
2023-02-19T10:21:33.377Z,5.04
2023-02-19T10:24:27.923Z,5.24
2023-02-19T10:27:15.627Z,5.42
2023-02-19T10:30:02.426Z,5.39
2023-02-19T10:33:14.085Z,5.33
2023-02-19T10:36:04.160Z,5.54
2023-02-19T10:38:50.630Z,5.45
2023-02-19T10:41:44.065Z,5.46
2023-02-19T10:44:36.980Z,5.53
2023-02-19T10:47:24.793Z,5.51
2023-02-19T10:50:26.971Z,5.35
2023-02-19T10:53:23.756Z,5.29
2023-02-19T10:56:27.016Z,5.37
2023-02-19T10:59:28.351Z,5.39
2023-02-19T11:02:19.947Z,5.33
2023-02-19T11:05:09.413Z,5.40
2023-02-19T11:07:57.355Z,5.46
2023-02-19T11:10:48.689Z,5.55
2023-02-19T11:13:38.146Z,5.66
2023-02-19T11:16:36.913Z,5.81
2023-02-19T11:19:46.073Z,5.89
2023-02-19T11:22:50.479Z,6.01
2023-02-19T11:25:55.387Z,5.93
2023-02-19T11:28:47.118Z,5.86
2023-02-19T11:31:36.762Z,5.94
2023-02-19T11:34:30.511Z,5.96
2023-02-19T11:37:22.571Z,5.97
2023-02-19T11:40:12.776Z,5.89
2023-02-19T11:43:44.283Z,6.06
2023-02-19T11:46:55.104Z,6.11
2023-02-19T11:53:32.624Z,6.05
2023-02-19T11:56:37.338Z,6.05
2023-02-19T11:59:39.379Z,6.19
2023-02-19T12:02:42.042Z,6.26
2023-02-19T12:06:13.753Z,6.36
2023-02-19T12:09:36.310Z,6.41
2023-02-19T12:12:26.169Z,6.21
2023-02-19T12:15:20.386Z,6.37
2023-02-19T12:18:22.663Z,6.27
2023-02-19T12:21:27.184Z,5.96
2023-02-19T12:24:41.913Z,6.15
2023-02-19T12:27:37.932Z,6.12
2023-02-19T12:30:53.691Z,6.09
2023-02-19T12:33:46.732Z,5.92
2023-02-19T12:37:15.010Z,6.13
2023-02-19T12:40:30.364Z,6.12
2023-02-19T12:43:26.273Z,6.11
2023-02-19T12:46:21.760Z,6.02
2023-02-19T12:49:14.117Z,5.88
2023-02-19T12:52:43.293Z,5.86
2023-02-19T12:55:39.635Z,5.77
2023-02-19T12:58:38.491Z,5.54
2023-02-19T13:01:48.684Z,5.50
2023-02-19T13:04:49.707Z,5.72
2023-02-19T13:07:58.291Z,5.81
2023-02-19T13:10:59.556Z,5.87
2023-02-19T13:14:11.988Z,5.97
2023-02-19T13:17:11.273Z,5.98
2023-02-19T13:20:18.339Z,6.02
2023-02-19T13:23:42.708Z,5.90
2023-02-19T13:26:42.413Z,6.15
2023-02-19T13:29:53.286Z,6.17
2023-02-19T13:32:46.483Z,6.13
2023-02-19T13:35:42.064Z,6.14
2023-02-19T13:38:53.015Z,6.12
2023-02-19T13:41:55.094Z,5.98
2023-02-19T13:44:57.715Z,5.97
2023-02-19T13:47:56.968Z,5.63
2023-02-19T13:50:46.540Z,5.91
2023-02-19T13:53:47.910Z,5.85
2023-02-19T13:56:38.417Z,5.73
2023-02-19T13:59:39.359Z,5.73
2023-02-19T14:02:35.479Z,5.69
2023-02-19T14:06:00.124Z,5.66
2023-02-19T14:08:50.261Z,5.46
2023-02-19T14:11:44.146Z,5.54
2023-02-19T14:14:41.183Z,5.50
2023-02-19T14:17:44.197Z,5.43
2023-02-19T14:20:45.316Z,5.34
2023-02-19T14:23:36.935Z,5.44
2023-02-19T14:26:32.352Z,5.43
2023-02-19T14:29:20.121Z,5.36
2023-02-19T14:32:13.614Z,5.31
2023-02-19T14:35:02.452Z,5.16
2023-02-19T14:37:51.464Z,5.14
2023-02-19T14:40:43.770Z,5.06
2023-02-19T14:43:31.645Z,4.98
2023-02-19T14:46:21.543Z,5.01
2023-02-19T14:49:40.252Z,4.92
2023-02-19T14:52:41.226Z,4.85
2023-02-19T14:55:35.673Z,4.73
2023-02-19T14:58:33.015Z,4.72
2023-02-19T15:01:29.047Z,4.63
2023-02-19T15:04:24.753Z,4.58
2023-02-19T15:07:15.974Z,4.42
2023-02-19T15:10:05.550Z,4.44
2023-02-19T15:12:53.837Z,4.14
2023-02-19T15:15:44.634Z,4.37
2023-02-19T15:18:35.768Z,4.32
2023-02-19T15:21:26.431Z,4.23
2023-02-19T15:24:15.060Z,3.88
2023-02-19T15:27:01.927Z,4.14
2023-02-19T15:29:53.207Z,3.74
2023-02-19T15:32:40.195Z,3.98
2023-02-19T15:35:28.179Z,4.00
2023-02-19T15:38:15.264Z,4.00
2023-02-19T15:41:01.784Z,3.90
2023-02-19T15:44:11.586Z,4.00
2023-02-19T15:47:00.420Z,3.97
2023-02-19T15:49:57.319Z,3.93
2023-02-19T15:52:52.748Z,3.88
2023-02-19T15:55:41.396Z,3.86
2023-02-19T15:58:36.440Z,3.81
2023-02-19T16:01:26.048Z,3.67
2023-02-19T16:04:17.646Z,3.68
2023-02-19T16:07:04.020Z,3.58
2023-02-19T16:10:25.057Z,3.39
2023-02-19T16:13:12.070Z,3.43
2023-02-19T16:16:24.473Z,3.38
2023-02-19T16:19:11.602Z,3.27
2023-02-19T16:21:58.791Z,3.02
2023-02-19T16:24:47.966Z,3.13
2023-02-19T16:27:40.374Z,3.07
2023-02-19T16:30:34.203Z,3.03
2023-02-19T16:33:48.381Z,3.02
2023-02-19T16:36:41.377Z,2.95
2023-02-19T16:39:28.266Z,2.85
2023-02-19T16:42:15.180Z,2.65
2023-02-19T16:45:02.126Z,2.80
2023-02-19T16:47:51.150Z,2.74
2023-02-19T16:50:43.554Z,2.29
2023-02-19T16:53:30.681Z,2.61
2023-02-19T16:56:21.306Z,2.47
2023-02-19T16:59:08.165Z,2.44
2023-02-19T17:01:54.930Z,2.18
2023-02-19T17:04:41.284Z,2.43
2023-02-19T17:07:27.901Z,2.07
2023-02-19T17:10:17.882Z,2.25
2023-02-19T17:13:04.615Z,2.33
2023-02-19T17:15:51.570Z,2.22
2023-02-19T17:18:38.080Z,2.12
2023-02-19T17:21:30.924Z,1.91
2023-02-19T17:24:17.571Z,2.06
2023-02-19T17:27:04.189Z,2.14
2023-02-19T17:29:50.825Z,2.11
2023-02-19T17:32:37.393Z,2.06
2023-02-19T17:35:26.962Z,1.88
2023-02-19T17:38:14.258Z,1.97
2023-02-19T17:41:00.983Z,2.04
2023-02-19T17:43:48.320Z,2.06
2023-02-19T17:46:35.920Z,1.80
2023-02-19T17:49:24.360Z,2.01
2023-02-19T17:52:10.924Z,1.95
2023-02-19T17:54:57.419Z,1.79
2023-02-19T17:57:45.075Z,1.89
2023-02-19T18:00:32.381Z,1.69
2023-02-19T18:03:19.410Z,1.88
2023-02-19T18:06:06.925Z,1.86
2023-02-19T18:08:53.794Z,1.87
2023-02-19T18:11:46.476Z,1.87
2023-02-19T18:14:35.712Z,1.84
2023-02-19T18:17:25.949Z,1.83
2023-02-19T18:20:17.584Z,1.79
2023-02-19T18:23:07.947Z,1.71
2023-02-19T18:25:54.004Z,1.68
2023-02-19T18:28:41.131Z,1.55
2023-02-19T18:31:27.949Z,1.56
2023-02-19T18:34:20.677Z,1.44
2023-02-19T18:37:07.133Z,1.71
2023-02-19T18:39:53.943Z,1.55
2023-02-19T18:42:41.065Z,1.54
2023-02-19T18:45:29.819Z,1.45
2023-02-19T18:48:16.129Z,1.60
2023-02-19T18:51:02.542Z,1.69
2023-02-19T18:53:49.225Z,1.67
2023-02-19T18:56:43.658Z,1.70
2023-02-19T18:59:29.832Z,1.64
2023-02-19T19:02:16.928Z,1.55
2023-02-19T19:05:03.712Z,1.48
2023-02-19T19:08:01.983Z,1.37
2023-02-19T19:10:48.341Z,1.40
2023-02-19T19:13:35.176Z,1.34
2023-02-19T19:16:25.966Z,1.25
2023-02-19T19:19:13.345Z,1.22
2023-02-19T19:21:59.771Z,1.25
2023-02-19T19:24:46.479Z,0.93
2023-02-19T19:27:35.986Z,0.95
2023-02-19T19:30:25.744Z,0.96
2023-02-19T19:33:17.851Z,0.98
2023-02-19T19:36:11.102Z,1.01
2023-02-19T19:38:57.345Z,0.97
2023-02-19T19:41:43.961Z,0.92
2023-02-19T19:44:30.670Z,0.60
2023-02-19T19:47:18.222Z,0.93
2023-02-19T19:50:06.681Z,0.77
2023-02-19T19:52:53.451Z,0.95
2023-02-19T19:55:39.918Z,0.90
2023-02-19T19:58:30.059Z,0.92
2023-02-19T20:01:21.106Z,0.77
2023-02-19T20:04:10.308Z,1.12
2023-02-19T20:06:58.645Z,1.22
2023-02-19T20:09:50.931Z,1.02
2023-02-19T20:12:39.638Z,1.13
2023-02-19T20:15:26.770Z,1.16
2023-02-19T20:18:18.622Z,1.12
2023-02-19T20:21:07.631Z,1.06
2023-02-19T20:23:53.980Z,1.11
2023-02-19T20:26:40.701Z,0.85
2023-02-19T20:29:33.159Z,0.87
2023-02-19T20:32:19.818Z,1.00
2023-02-19T20:35:08.205Z,0.92
2023-02-19T20:37:55.705Z,0.79
2023-02-19T20:40:42.193Z,0.69
2023-02-19T20:43:28.873Z,0.71
2023-02-19T20:46:15.488Z,0.75
2023-02-19T20:49:02.178Z,0.94
2023-02-19T20:52:07.551Z,0.99
2023-02-19T20:54:55.932Z,1.01
2023-02-19T20:57:44.856Z,1.02
2023-02-19T21:00:31.229Z,1.01
2023-02-19T21:03:17.599Z,1.00
2023-02-19T21:06:07.082Z,0.80
2023-02-19T21:08:53.169Z,0.76
2023-02-19T21:11:42.852Z,0.98
2023-02-19T21:14:29.202Z,0.81
2023-02-19T21:17:16.129Z,0.92
2023-02-19T21:20:05.670Z,0.73
2023-02-19T21:22:52.665Z,0.85
2023-02-19T21:25:39.412Z,0.84
2023-02-19T21:28:25.970Z,1.00
2023-02-19T21:31:12.448Z,0.97
2023-02-19T21:34:04.233Z,1.05
2023-02-19T21:36:51.252Z,0.96
2023-02-19T21:39:39.042Z,0.81
2023-02-19T21:42:25.820Z,0.97
2023-02-19T21:45:12.485Z,0.86
2023-02-19T21:47:59.277Z,0.76
2023-02-19T21:50:45.903Z,1.06
2023-02-19T21:53:33.822Z,1.04
2023-02-19T21:56:31.576Z,0.99
2023-02-19T21:59:18.836Z,0.95
2023-02-19T22:02:05.144Z,1.13
2023-02-19T22:04:55.438Z,1.14
2023-02-19T22:07:42.247Z,0.83
2023-02-19T22:10:29.949Z,1.16
2023-02-19T22:13:18.839Z,1.18
2023-02-19T22:16:05.552Z,1.13
2023-02-19T22:18:57.806Z,1.28
2023-02-19T22:21:46.819Z,0.88
2023-02-19T22:24:33.596Z,1.18
2023-02-19T22:27:21.813Z,1.23
2023-02-19T22:31:02.001Z,1.21
2023-02-19T22:33:48.676Z,0.83
2023-02-19T22:36:39.104Z,1.17
2023-02-19T22:39:28.029Z,1.09
2023-02-19T22:42:21.580Z,1.07
2023-02-19T22:45:29.711Z,1.11
2023-02-19T22:48:29.680Z,1.10
2023-02-19T22:51:25.214Z,1.09
2023-02-19T22:54:17.079Z,1.07
2023-02-19T22:57:10.698Z,1.10
2023-02-19T23:00:00.821Z,1.14
2023-02-19T23:02:48.861Z,0.92
2023-02-19T23:05:35.564Z,1.05
2023-02-19T23:08:21.827Z,1.04
2023-02-19T23:11:09.449Z,0.78
2023-02-19T23:13:55.956Z,0.75
2023-02-19T23:16:43.144Z,0.84
2023-02-19T23:19:29.726Z,0.91
2023-02-19T23:22:16.551Z,0.65
2023-02-19T23:25:06.861Z,0.82
2023-02-19T23:27:53.717Z,0.82
2023-02-19T23:30:39.962Z,0.67
2023-02-19T23:33:26.923Z,0.79
2023-02-19T23:36:13.976Z,0.77
2023-02-19T23:39:03.870Z,0.86
2023-02-19T23:41:54.528Z,0.93
2023-02-19T23:44:41.227Z,0.90
2023-02-19T23:47:30.652Z,0.78
2023-02-19T23:50:17.517Z,0.80
2023-02-19T23:53:04.252Z,0.80
2023-02-19T23:55:51.795Z,0.62
2023-02-19T23:58:38.206Z,0.82
